createdAt,value
2018-07-10T00:00:07.295Z,20.30
2018-07-10T00:03:15.835Z,20.42
2018-07-10T00:10:13.940Z,20.53
2018-07-10T00:12:41.259Z,20.56
2018-07-10T00:15:08.594Z,20.55
2018-07-10T00:17:35.902Z,20.61
2018-07-10T00:20:03.251Z,20.63
2018-07-10T00:22:30.558Z,20.69
2018-07-10T00:24:57.996Z,20.59
2018-07-10T00:27:25.421Z,20.55
2018-07-10T00:29:52.811Z,20.54
2018-07-10T00:32:20.132Z,20.46
2018-07-10T00:34:47.474Z,20.37
2018-07-10T00:37:15.054Z,20.40
2018-07-10T00:39:42.468Z,20.36
2018-07-10T00:42:09.804Z,20.39
2018-07-10T00:44:37.159Z,19.96
2018-07-10T00:47:04.524Z,19.79
2018-07-10T00:49:31.935Z,19.84
2018-07-10T00:51:59.435Z,19.79
2018-07-10T00:54:26.736Z,19.85
2018-07-10T00:56:54.127Z,19.94
2018-07-10T00:59:21.617Z,19.94
2018-07-10T01:01:49.015Z,19.97
2018-07-10T01:04:16.307Z,20.03
2018-07-10T01:06:43.618Z,20.08
2018-07-10T01:09:17.764Z,20.12
2018-07-10T01:11:50.435Z,20.13
2018-07-10T01:14:17.871Z,20.18
2018-07-10T01:16:45.483Z,20.20
2018-07-10T01:19:14.720Z,20.16
2018-07-10T01:21:42.917Z,20.14
2018-07-10T01:24:10.302Z,20.16
2018-07-10T01:26:41.295Z,20.14
2018-07-10T01:29:19.716Z,19.90
2018-07-10T01:31:48.488Z,19.97
2018-07-10T01:34:15.865Z,19.89
2018-07-10T01:36:43.201Z,19.86
2018-07-10T01:39:10.577Z,19.84
2018-07-10T01:41:37.875Z,19.78
2018-07-10T01:44:05.499Z,19.73
2018-07-10T01:46:32.966Z,19.76
2018-07-10T01:49:00.299Z,19.74
2018-07-10T01:51:28.595Z,19.65
2018-07-10T01:53:55.924Z,19.71
2018-07-10T01:56:23.227Z,19.69
2018-07-10T01:58:51.218Z,19.62
2018-07-10T02:01:18.674Z,19.59
2018-07-10T02:03:46.029Z,19.55
2018-07-10T02:06:13.502Z,19.51
2018-07-10T02:08:40.892Z,19.47
2018-07-10T02:11:08.382Z,19.36
2018-07-10T02:13:35.716Z,19.34
2018-07-10T02:16:03.159Z,19.29
2018-07-10T02:18:30.761Z,19.31
2018-07-10T02:21:00.483Z,19.20
2018-07-10T02:23:31.640Z,19.21
2018-07-10T02:25:59.093Z,19.30
2018-07-10T02:28:26.398Z,19.32
2018-07-10T02:30:53.733Z,19.30
2018-07-10T02:33:21.262Z,19.32
2018-07-10T02:35:48.585Z,19.31
2018-07-10T02:38:15.942Z,19.35
2018-07-10T02:40:43.960Z,19.33
2018-07-10T02:43:11.373Z,19.28
2018-07-10T02:45:38.698Z,19.23
2018-07-10T02:48:06.201Z,19.24
2018-07-10T02:50:33.826Z,19.27
2018-07-10T02:53:01.198Z,19.30
2018-07-10T02:55:29.891Z,19.30
2018-07-10T02:57:57.300Z,19.25
2018-07-10T03:00:25.774Z,19.26
2018-07-10T03:02:53.244Z,19.17
2018-07-10T03:05:20.813Z,19.12
2018-07-10T03:07:48.445Z,18.74
2018-07-10T03:10:16.860Z,19.17
2018-07-10T03:12:44.314Z,19.20
2018-07-10T03:15:13.626Z,19.26
2018-07-10T03:17:41.100Z,19.18
2018-07-10T03:20:08.997Z,19.23
2018-07-10T03:22:36.537Z,19.15
2018-07-10T03:25:03.974Z,19.07
2018-07-10T03:27:31.609Z,19.08
2018-07-10T03:29:59.586Z,19.13
2018-07-10T03:32:26.933Z,19.08
2018-07-10T03:34:54.325Z,19.14
2018-07-10T03:37:21.964Z,19.14
2018-07-10T03:39:49.352Z,19.13
2018-07-10T03:42:17.673Z,19.12
2018-07-10T03:44:45.577Z,19.10
2018-07-10T03:47:14.523Z,19.12
2018-07-10T03:49:42.719Z,19.06
2018-07-10T03:52:12.914Z,19.20
2018-07-10T03:54:44.206Z,19.18
2018-07-10T03:57:12.888Z,19.16
2018-07-10T03:59:46.395Z,19.20
2018-07-10T04:02:14.021Z,19.05
2018-07-10T04:04:41.644Z,19.04
2018-07-10T04:07:09.105Z,19.05
2018-07-10T04:09:36.467Z,19.04
2018-07-10T04:12:03.947Z,19.01
2018-07-10T04:14:31.283Z,19.06
2018-07-10T04:16:58.882Z,19.07
2018-07-10T04:19:27.926Z,19.14
2018-07-10T04:21:56.592Z,19.04
2018-07-10T04:24:24.525Z,19.00
2018-07-10T04:27:13.856Z,19.09
2018-07-10T04:29:47.872Z,19.06
2018-07-10T04:32:15.364Z,19.11
2018-07-10T04:34:42.823Z,19.24
2018-07-10T04:37:13.065Z,19.38
2018-07-10T04:39:41.977Z,19.35
2018-07-10T04:42:31.587Z,19.27
2018-07-10T04:45:05.218Z,19.08
2018-07-10T04:47:54.487Z,19.02
2018-07-10T04:50:44.093Z,19.07
2018-07-10T04:53:24.499Z,19.07
2018-07-10T04:55:55.215Z,19.14
2018-07-10T04:58:25.486Z,18.82
2018-07-10T05:01:00.876Z,18.92
2018-07-10T05:03:29.311Z,19.05
2018-07-10T05:05:57.898Z,19.20
2018-07-10T05:08:25.133Z,19.03
2018-07-10T05:10:52.826Z,19.09
2018-07-10T05:13:20.192Z,19.18
2018-07-10T05:15:51.471Z,19.29
2018-07-10T05:18:18.896Z,19.41
2018-07-10T05:20:46.193Z,19.52
2018-07-10T05:23:14.639Z,19.60
2018-07-10T05:25:45.449Z,19.60
2018-07-10T05:28:12.804Z,19.56
2018-07-10T05:30:41.544Z,19.57
2018-07-10T05:33:10.050Z,19.62
2018-07-10T05:35:37.436Z,19.63
2018-07-10T05:38:05.256Z,19.61
2018-07-10T05:40:32.640Z,19.69
2018-07-10T05:43:01.999Z,19.71
2018-07-10T05:45:29.437Z,19.67
2018-07-10T05:47:59.248Z,19.60
2018-07-10T05:50:31.488Z,19.73
2018-07-10T05:52:58.826Z,19.92
2018-07-10T05:55:29.543Z,20.03
2018-07-10T05:57:57.985Z,20.09
2018-07-10T06:00:25.378Z,20.01
2018-07-10T06:02:53.116Z,19.99
2018-07-10T06:05:20.490Z,19.74
2018-07-10T06:07:49.203Z,19.60
2018-07-10T06:10:16.604Z,19.96
2018-07-10T06:12:43.957Z,19.87
2018-07-10T06:15:12.270Z,20.04
2018-07-10T06:17:39.619Z,20.08
2018-07-10T06:20:06.826Z,19.85
2018-07-10T06:22:34.218Z,19.74
2018-07-10T06:25:05.218Z,19.73
2018-07-10T06:27:43.275Z,19.78
2018-07-10T06:30:11.030Z,19.80
2018-07-10T06:33:51.390Z,19.86
2018-07-10T06:36:26.087Z,19.73
2018-07-10T06:38:53.979Z,19.75
2018-07-10T06:41:22.888Z,19.71
2018-07-10T06:43:55.105Z,19.77
2018-07-10T06:47:26.657Z,19.70
2018-07-10T06:49:54.470Z,19.83
2018-07-10T06:52:22.517Z,19.74
2018-07-10T06:55:06.849Z,19.66
2018-07-10T06:57:35.834Z,19.67
2018-07-10T07:00:07.808Z,19.67
2018-07-10T07:02:36.454Z,19.56
2018-07-10T07:05:04.433Z,19.53
2018-07-10T07:07:33.757Z,19.47
2018-07-10T07:10:04.461Z,19.50
2018-07-10T07:12:32.191Z,19.51
2018-07-10T07:14:59.650Z,19.44
2018-07-10T07:17:27.619Z,19.63
2018-07-10T07:19:54.898Z,19.73
2018-07-10T07:22:22.302Z,19.69
2018-07-10T07:24:50.585Z,19.90
2018-07-10T07:27:17.980Z,19.99
2018-07-10T07:29:45.683Z,19.91
2018-07-10T07:32:13.017Z,19.88
2018-07-10T07:34:40.390Z,19.89
2018-07-10T07:37:08.020Z,19.82
2018-07-10T07:39:35.604Z,19.74
2018-07-10T07:42:03.173Z,19.95
2018-07-10T07:44:30.637Z,20.11
2018-07-10T07:46:58.040Z,20.18
2018-07-10T07:49:25.413Z,20.29
2018-07-10T07:51:52.663Z,20.33
2018-07-10T07:54:20.412Z,20.62
2018-07-10T07:56:47.757Z,20.85
2018-07-10T07:59:15.092Z,21.14
2018-07-10T08:01:42.472Z,21.43
2018-07-10T08:04:09.962Z,22.01
2018-07-10T08:06:37.300Z,22.51
2018-07-10T08:09:05.883Z,22.40
2018-07-10T08:11:33.343Z,22.34
2018-07-10T08:14:00.726Z,22.51
2018-07-10T08:16:28.006Z,22.70
2018-07-10T08:18:55.514Z,22.80
2018-07-10T08:21:22.887Z,23.27
2018-07-10T08:23:50.264Z,23.50
2018-07-10T08:26:18.078Z,24.12
2018-07-10T08:28:45.464Z,23.90
2018-07-10T08:31:12.940Z,24.09
2018-07-10T08:33:40.421Z,23.86
2018-07-10T08:36:07.765Z,23.60
2018-07-10T08:38:39.587Z,23.09
2018-07-10T08:41:08.173Z,23.01
2018-07-10T08:43:35.608Z,23.05
2018-07-10T08:46:03.108Z,22.98
2018-07-10T08:48:31.042Z,22.64
2018-07-10T08:50:58.490Z,22.78
2018-07-10T08:53:26.335Z,22.50
2018-07-10T08:55:53.730Z,22.05
2018-07-10T08:58:21.063Z,21.97
2018-07-10T09:00:48.462Z,21.77
2018-07-10T09:03:15.241Z,21.25
2018-07-10T09:05:42.030Z,20.92
2018-07-10T09:08:09.181Z,20.65
2018-07-10T09:10:35.926Z,20.46
2018-07-10T09:13:02.680Z,20.20
2018-07-10T09:15:31.437Z,20.05
2018-07-10T09:17:58.257Z,19.93
2018-07-10T09:20:26.375Z,20.05
2018-07-10T09:22:53.168Z,20.14
2018-07-10T09:25:19.937Z,20.70
2018-07-10T09:27:46.678Z,20.89
2018-07-10T09:30:13.364Z,21.05
2018-07-10T09:32:44.201Z,21.27
2018-07-10T09:35:14.461Z,21.10
2018-07-10T09:37:45.713Z,21.15
2018-07-10T09:40:17.608Z,21.04
2018-07-10T09:42:50.149Z,20.61
2018-07-10T09:45:16.910Z,20.29
2018-07-10T09:47:43.709Z,20.06
2018-07-10T09:50:10.496Z,20.07
2018-07-10T09:52:37.175Z,19.79
2018-07-10T09:55:03.992Z,19.80
2018-07-10T09:57:31.496Z,19.80
2018-07-10T09:59:58.284Z,19.67
2018-07-10T10:02:33.320Z,19.45
2018-07-10T10:05:01.484Z,19.34
2018-07-10T10:07:28.409Z,19.44
2018-07-10T10:09:55.196Z,19.57
2018-07-10T10:12:22.124Z,19.55
2018-07-10T10:14:49.598Z,19.61
2018-07-10T10:17:16.592Z,19.65
2018-07-10T10:19:43.482Z,19.36
2018-07-10T10:22:10.234Z,19.38
2018-07-10T10:24:37.113Z,19.27
2018-07-10T10:27:03.823Z,18.95
2018-07-10T10:29:30.562Z,18.79
2018-07-10T10:31:57.226Z,18.59
2018-07-10T10:34:23.946Z,18.25
2018-07-10T10:36:50.671Z,18.31
2018-07-10T10:39:17.470Z,18.19
2018-07-10T10:41:44.291Z,17.79
2018-07-10T10:44:11.037Z,17.76
2018-07-10T10:46:37.819Z,17.76
2018-07-10T10:49:04.591Z,17.90
2018-07-10T10:51:31.385Z,17.94
2018-07-10T10:53:58.149Z,17.81
2018-07-10T10:56:24.955Z,17.78
2018-07-10T10:58:52.174Z,17.93
2018-07-10T11:01:18.917Z,17.96
2018-07-10T11:03:45.674Z,18.04
2018-07-10T11:06:12.458Z,18.21
2018-07-10T11:08:39.273Z,18.58
2018-07-10T11:11:05.991Z,19.06
2018-07-10T11:13:32.708Z,19.20
2018-07-10T11:15:59.482Z,19.32
2018-07-10T11:18:34.805Z,19.67
2018-07-10T11:21:02.387Z,20.06
2018-07-10T11:23:37.187Z,20.34
2018-07-10T11:26:05.671Z,20.37
2018-07-10T11:28:32.418Z,20.72
2018-07-10T11:30:59.115Z,20.99
2018-07-10T11:33:25.815Z,21.17
2018-07-10T11:35:52.546Z,21.15
2018-07-10T11:38:19.318Z,21.17
2018-07-10T11:40:46.069Z,21.42
2018-07-10T11:45:39.532Z,21.31
2018-07-10T11:48:06.407Z,21.58
2018-07-10T11:50:33.267Z,21.49
2018-07-10T11:53:00.065Z,22.11
2018-07-10T11:55:26.781Z,22.30
2018-07-10T11:57:53.556Z,22.21
2018-07-10T12:00:20.606Z,22.22
2018-07-10T12:02:49.137Z,22.53
2018-07-10T12:05:17.252Z,22.52
2018-07-10T12:07:45.244Z,22.43
2018-07-10T12:10:17.536Z,22.42
2018-07-10T12:12:44.569Z,22.22
2018-07-10T12:15:11.374Z,22.63
2018-07-10T12:17:38.090Z,22.67
2018-07-10T12:20:04.877Z,22.29
2018-07-10T12:22:32.150Z,22.15
2018-07-10T12:24:58.870Z,22.18
2018-07-10T12:27:25.577Z,22.78
2018-07-10T12:29:52.344Z,23.25
2018-07-10T12:32:19.070Z,23.66
2018-07-10T12:34:45.801Z,23.80
2018-07-10T12:37:12.543Z,23.62
2018-07-10T12:39:39.310Z,23.43
2018-07-10T12:42:06.083Z,23.08
2018-07-10T12:44:32.851Z,23.17
2018-07-10T12:46:59.614Z,23.89
2018-07-10T12:49:26.373Z,23.58
2018-07-10T12:51:53.024Z,23.27
2018-07-10T12:54:19.736Z,23.20
2018-07-10T12:56:46.535Z,22.88
2018-07-10T12:59:13.277Z,23.32
2018-07-10T13:01:40.158Z,23.37
2018-07-10T13:04:06.891Z,23.66
2018-07-10T13:06:33.604Z,23.62
2018-07-10T13:09:00.349Z,23.98
2018-07-10T13:11:27.092Z,24.24
2018-07-10T13:13:53.866Z,24.37
2018-07-10T13:16:20.754Z,24.27
2018-07-10T13:18:47.493Z,23.91
2018-07-10T13:21:14.311Z,23.32
2018-07-10T13:23:41.016Z,23.30
2018-07-10T13:26:07.889Z,23.74
2018-07-10T13:28:34.625Z,24.12
2018-07-10T13:31:01.407Z,24.31
2018-07-10T13:33:28.114Z,24.33
2018-07-10T13:35:54.911Z,24.42
2018-07-10T13:38:21.961Z,24.62
2018-07-10T13:40:49.008Z,24.40
2018-07-10T13:43:15.759Z,24.88
2018-07-10T13:45:42.588Z,25.47
2018-07-10T13:48:09.327Z,25.58
2018-07-10T13:50:36.212Z,25.66
2018-07-10T13:53:03.468Z,25.46
2018-07-10T13:55:30.310Z,25.56
2018-07-10T13:58:03.532Z,26.04
2018-07-10T14:00:32.071Z,26.25
2018-07-10T14:02:58.861Z,26.16
2018-07-10T14:05:25.534Z,25.86
2018-07-10T14:07:52.375Z,25.53
2018-07-10T14:10:19.126Z,25.31
2018-07-10T14:12:45.874Z,25.38
2018-07-10T14:15:12.681Z,24.99
2018-07-10T14:17:40.600Z,24.63
2018-07-10T14:20:07.380Z,24.07
2018-07-10T14:22:34.110Z,23.82
2018-07-10T14:25:00.835Z,23.68
2018-07-10T14:27:27.553Z,23.55
2018-07-10T14:29:54.411Z,24.26
2018-07-10T14:32:21.285Z,24.45
2018-07-10T14:34:53.041Z,24.77
2018-07-10T14:37:20.530Z,24.55
2018-07-10T14:39:47.351Z,23.92
2018-07-10T14:42:14.115Z,23.99
2018-07-10T14:44:41.902Z,24.51
2018-07-10T14:47:08.596Z,25.07
2018-07-10T14:49:35.281Z,25.21
2018-07-10T14:52:02.111Z,25.22
2018-07-10T14:54:28.802Z,25.17
2018-07-10T14:56:55.483Z,25.20
2018-07-10T14:59:22.178Z,25.36
2018-07-10T15:01:48.908Z,25.44
2018-07-10T15:04:15.603Z,25.27
2018-07-10T15:06:42.296Z,25.20
2018-07-10T15:09:09.546Z,24.94
2018-07-10T15:11:36.194Z,25.17
2018-07-10T15:14:04.619Z,25.07
2018-07-10T15:17:36.908Z,25.48
2018-07-10T15:20:05.621Z,25.40
2018-07-10T15:22:32.975Z,25.36
2018-07-10T15:24:59.642Z,25.47
2018-07-10T15:27:26.345Z,25.39
2018-07-10T15:29:53.146Z,25.17
2018-07-10T15:32:19.882Z,25.36
2018-07-10T15:34:46.589Z,25.08
2018-07-10T15:37:13.359Z,24.78
2018-07-10T15:39:40.055Z,24.86
2018-07-10T15:42:06.761Z,24.84
2018-07-10T15:44:33.515Z,24.88
2018-07-10T15:47:00.225Z,24.90
2018-07-10T15:49:26.948Z,24.90
2018-07-10T15:51:53.656Z,24.86
2018-07-10T15:54:20.400Z,25.14
2018-07-10T15:56:47.134Z,25.18
2018-07-10T15:59:13.925Z,25.01
2018-07-10T16:01:40.649Z,25.09
2018-07-10T16:04:07.620Z,25.08
2018-07-10T16:06:34.810Z,24.82
2018-07-10T16:09:06.361Z,24.68
2018-07-10T16:11:33.369Z,24.63
2018-07-10T16:14:00.118Z,24.81
2018-07-10T16:16:26.831Z,24.85
2018-07-10T16:18:55.467Z,24.80
2018-07-10T16:21:24.510Z,24.56
2018-07-10T16:23:51.295Z,24.45
2018-07-10T16:26:20.919Z,24.09
2018-07-10T16:28:47.624Z,23.90
2018-07-10T16:31:16.098Z,23.92
2018-07-10T16:33:42.891Z,23.84
2018-07-10T16:36:09.793Z,23.80
2018-07-10T16:38:36.819Z,23.46
2018-07-10T16:41:09.350Z,23.35
2018-07-10T16:43:36.101Z,23.75
2018-07-10T16:46:02.890Z,23.76
2018-07-10T16:48:35.837Z,23.73
2018-07-10T16:51:08.923Z,23.58
2018-07-10T16:53:36.049Z,23.54
2018-07-10T16:56:02.804Z,23.34
2018-07-10T16:58:31.057Z,23.03
2018-07-10T17:00:57.923Z,22.88
2018-07-10T17:03:24.883Z,22.92
2018-07-10T17:05:51.601Z,22.89
2018-07-10T17:08:18.279Z,22.70
2018-07-10T17:10:44.966Z,22.50
2018-07-10T17:13:11.730Z,22.48
2018-07-10T17:15:38.481Z,22.55
2018-07-10T17:18:05.200Z,22.41
2018-07-10T17:20:31.927Z,22.29
2018-07-10T17:22:58.723Z,22.25
2018-07-10T17:25:25.488Z,22.23
2018-07-10T17:27:52.292Z,22.01
2018-07-10T17:30:18.992Z,22.01
2018-07-10T17:32:45.751Z,22.10
2018-07-10T17:35:12.538Z,21.91
2018-07-10T17:37:40.691Z,21.94
2018-07-10T17:40:07.401Z,21.93
2018-07-10T17:42:34.446Z,21.81
2018-07-10T17:45:01.468Z,21.83
2018-07-10T17:47:28.188Z,21.58
2018-07-10T17:52:22.109Z,21.32
2018-07-10T17:54:48.977Z,21.33
2018-07-10T17:57:15.950Z,21.19
2018-07-10T17:59:42.662Z,21.14
2018-07-10T18:02:10.087Z,21.14
2018-07-10T18:04:36.825Z,20.93
2018-07-10T18:07:03.475Z,20.75
2018-07-10T18:09:30.248Z,20.54
2018-07-10T18:11:57.026Z,20.61
2018-07-10T18:14:23.860Z,20.58
2018-07-10T18:16:50.564Z,20.56
2018-07-10T18:19:17.243Z,20.43
2018-07-10T18:21:44.056Z,20.38
2018-07-10T18:24:10.867Z,20.30
2018-07-10T18:26:37.694Z,20.11
2018-07-10T18:29:05.071Z,19.96
2018-07-10T18:31:31.841Z,20.03
2018-07-10T18:33:58.508Z,20.05
2018-07-10T18:36:25.367Z,19.95
2018-07-10T18:38:52.076Z,19.91
2018-07-10T18:41:18.751Z,19.73
2018-07-10T18:43:45.702Z,19.79
2018-07-10T18:46:12.525Z,19.83
2018-07-10T18:48:39.400Z,19.78
2018-07-10T18:51:06.177Z,19.78
2018-07-10T18:53:32.992Z,19.69
2018-07-10T18:55:59.753Z,19.60
2018-07-10T18:58:32.298Z,19.47
2018-07-10T19:01:01.182Z,19.41
2018-07-10T19:03:28.184Z,19.25
2018-07-10T19:05:56.139Z,19.19
2018-07-10T19:08:23.005Z,19.19
2018-07-10T19:10:49.649Z,19.16
2018-07-10T19:13:16.930Z,19.17
2018-07-10T19:15:44.685Z,18.91
2018-07-10T19:18:11.405Z,18.88
2018-07-10T19:20:38.966Z,18.87
2018-07-10T19:23:08.286Z,18.87
2018-07-10T19:25:35.013Z,18.91
2018-07-10T19:28:02.290Z,18.96
2018-07-10T19:30:30.506Z,18.81
2018-07-10T19:33:00.256Z,18.76
2018-07-10T19:35:27.007Z,18.87
2018-07-10T19:37:53.658Z,18.85
2018-07-10T19:40:20.401Z,18.79
2018-07-10T19:42:48.738Z,18.67
2018-07-10T19:45:15.460Z,18.63
2018-07-10T19:47:42.208Z,18.58
2018-07-10T19:50:14.134Z,18.57
2018-07-10T19:52:41.671Z,18.52
2018-07-10T19:55:09.722Z,18.44
2018-07-10T19:57:46.703Z,18.34
2018-07-10T20:00:13.464Z,18.25
2018-07-10T20:02:40.230Z,18.19
2018-07-10T20:05:09.871Z,18.15
2018-07-10T20:07:39.081Z,18.19
2018-07-10T20:11:13.900Z,18.19
2018-07-10T20:13:44.160Z,18.09
2018-07-10T20:16:12.413Z,18.01
2018-07-10T20:18:55.468Z,17.94
2018-07-10T20:21:26.944Z,17.83
2018-07-10T20:24:02.330Z,17.76
2018-07-10T20:26:36.352Z,17.59
2018-07-10T20:29:09.081Z,17.53
2018-07-10T20:31:38.030Z,17.47
2018-07-10T20:34:10.056Z,17.41
2018-07-10T20:36:37.137Z,17.35
2018-07-10T20:39:04.493Z,17.36
2018-07-10T20:41:34.571Z,17.33
2018-07-10T20:44:03.586Z,17.30
2018-07-10T20:46:33.156Z,17.19
2018-07-10T20:49:01.311Z,17.18
2018-07-10T20:51:35.785Z,17.09
2018-07-10T20:54:06.781Z,16.96
2018-07-10T20:56:39.137Z,16.88
2018-07-10T20:59:11.326Z,16.88
2018-07-10T21:01:38.794Z,16.79
2018-07-10T21:04:12.813Z,16.73
2018-07-10T21:06:42.651Z,16.66
2018-07-10T21:09:10.654Z,16.55
2018-07-10T21:11:43.904Z,16.52
2018-07-10T21:14:13.434Z,16.50
2018-07-10T21:16:44.347Z,16.39
2018-07-10T21:19:17.448Z,16.42
2018-07-10T21:21:49.714Z,16.38
2018-07-10T21:24:17.124Z,16.25
2018-07-10T21:26:53.318Z,16.19
2018-07-10T21:29:21.988Z,16.13
2018-07-10T21:31:51.351Z,16.14
2018-07-10T21:34:29.821Z,16.15
2018-07-10T21:37:03.540Z,16.06
2018-07-10T21:39:57.696Z,16.02
2018-07-10T21:42:33.274Z,15.85
2018-07-10T21:45:04.204Z,15.76
2018-07-10T21:47:35.590Z,15.70
2018-07-10T21:50:03.568Z,15.67
2018-07-10T21:52:30.291Z,15.61
2018-07-10T21:55:00.397Z,15.62
2018-07-10T21:57:30.380Z,15.54
2018-07-10T21:59:58.812Z,15.52
2018-07-10T22:02:29.921Z,15.57
2018-07-10T22:04:57.455Z,15.52
2018-07-10T22:07:26.190Z,15.39
2018-07-10T22:09:52.867Z,15.42
2018-07-10T22:12:20.397Z,15.44
2018-07-10T22:14:48.287Z,15.38
2018-07-10T22:17:16.625Z,15.35
2018-07-10T22:19:43.481Z,15.27
2018-07-10T22:22:15.419Z,15.21
2018-07-10T22:24:43.278Z,15.21
2018-07-10T22:27:10.019Z,15.23
2018-07-10T22:29:43.686Z,15.12
2018-07-10T22:32:16.070Z,15.13
2018-07-10T22:34:43.033Z,15.13
2018-07-10T22:37:09.926Z,15.11
2018-07-10T22:39:36.609Z,15.00
2018-07-10T22:42:03.331Z,14.91
2018-07-10T22:44:33.109Z,14.75
2018-07-10T22:46:59.954Z,14.57
2018-07-10T22:49:26.702Z,14.66
2018-07-10T22:51:54.584Z,14.55
2018-07-10T22:54:21.300Z,14.61
2018-07-10T22:56:48.148Z,14.66
2018-07-10T22:59:14.889Z,14.73
2018-07-10T23:01:45.612Z,14.68
2018-07-10T23:04:12.697Z,14.64
2018-07-10T23:06:39.462Z,14.66
2018-07-10T23:11:39.595Z,14.62
2018-07-10T23:14:06.330Z,14.60
2018-07-10T23:16:36.133Z,14.55
2018-07-10T23:19:02.944Z,14.43
2018-07-10T23:21:29.717Z,14.37
2018-07-10T23:23:56.397Z,14.39
2018-07-10T23:26:23.108Z,14.44
2018-07-10T23:28:49.894Z,14.48
2018-07-10T23:31:22.779Z,14.47
2018-07-10T23:33:52.215Z,14.41
2018-07-10T23:36:18.888Z,14.32
2018-07-10T23:38:49.040Z,14.27
2018-07-10T23:41:18.820Z,14.17
2018-07-10T23:43:46.660Z,14.10
2018-07-10T23:46:19.365Z,13.96
2018-07-10T23:48:46.087Z,13.76
2018-07-10T23:51:12.821Z,13.94
2018-07-10T23:53:49.579Z,13.91
2018-07-10T23:56:16.731Z,13.96
2018-07-10T23:58:43.528Z,13.99
